メインページ
METAR-TAF:

METAR-TAF

空港 :

ポンタ・デルガダ, !acores!, ポルトガル

ポンタ・デルガダ空港

緯度: 37-44N, 経度: 025-42W, 海抜: 71m

現時点の気象観測

当レポートは18分前の23:00(UTC)に作成
北西の風 7kt、西からの間で変化する
気温 16°C
湿度 94%
気圧 1014 hPa
視程10km以上
高度1800ftの雲は散在している

METAR: LPPD 272300Z 31007KT 280V360 9999 SCT018 16/15 Q1014

時間: 23:18 (23:18 UTC)

予報

当レポートは6時間18分前の17:00(UTC)に作成
予報は27日の 18時(UTC)から 28日の 18時(UTC)まで有効
西/北西の風 15kt
視程10km以上
高度1500ftの雲は散在している
高度3000ftの雲は散在している
27日の 18時(UTC)から 28日の 09時(UTC)まで一時的に
高度1500ftの千切れ雲あり
28日の 15時(UTC)から 28日の 18時(UTC)まで徐々に
西/北西の風 10kt

TAF: LPPD 271700Z 2718/2818 30015KT 9999 SCT015 SCT030 TEMPO 2718/2809 BKN015 BECMG 2815/2818 30010KT

4,000以上の空港の気象観測と天気予報(METAR報とTAF報)

利用可能な観測所は地図上に黄色い丸と赤い丸で示す。

丸の上にカーソルを重ねると観測所名を参照できる。

次にクリックすると気象観測と天気予報を参照できる。

マップの切り替え:黒色「×」印の緑ボタンをクリックして拡大、「-」印の緑ボタンをクリックして縮小、緑色の三角印をクリックして隣りの地図に切り替え


METAR-TAF: